sensor_id;sensor_type;location;lat;lon;timestamp;pressure;altitude;pressure_sealevel;temperature;humidity
3160;BME280;1591;51.486;7.146;2022-09-27T00:01:51;71717.69;;;12.05;100.00
3160;BME280;1591;51.486;7.146;2022-09-27T00:04:19;71736.72;;;12.12;100.00
3160;BME280;1591;51.486;7.146;2022-09-27T00:06:46;71729.38;;;12.08;100.00
3160;BME280;1591;51.486;7.146;2022-09-27T00:09:13;71664.84;;;12.09;100.00
3160;BME280;1591;51.486;7.146;2022-09-27T00:11:42;71727.19;;;12.09;100.00
3160;BME280;1591;51.486;7.146;2022-09-27T00:14:12;71712.66;;;12.03;100.00
3160;BME280;1591;51.486;7.146;2022-09-27T00:16:43;71721.72;;;12.09;100.00
3160;BME280;1591;51.486;7.146;2022-09-27T00:19:13;71721.16;;;12.08;100.00
3160;BME280;1591;51.486;7.146;2022-09-27T00:21:42;71720.44;;;12.05;100.00
3160;BME280;1591;51.486;7.146;2022-09-27T00:24:12;71719.13;;;12.02;100.00
3160;BME280;1591;51.486;7.146;2022-09-27T00:26:43;71716.75;;;11.90;100.00
3160;BME280;1591;51.486;7.146;2022-09-27T00:29:12;71712.63;;;11.93;100.00
3160;BME280;1591;51.486;7.146;2022-09-27T00:31:41;71713.16;;;11.84;100.00
3160;BME280;1591;51.486;7.146;2022-09-27T00:34:17;71687.22;;;11.81;100.00
3160;BME280;1591;51.486;7.146;2022-09-27T00:36:45;71697.31;;;11.85;100.00
3160;BME280;1591;51.486;7.146;2022-09-27T00:39:13;71650.41;;;11.87;100.00
3160;BME280;1591;51.486;7.146;2022-09-27T00:41:41;71732.22;;;12.01;100.00
3160;BME280;1591;51.486;7.146;2022-09-27T00:47:29;71742.06;;;12.10;100.00
3160;BME280;1591;51.486;7.146;2022-09-27T00:50:04;71724.47;;;12.09;100.00
3160;BME280;1591;51.486;7.146;2022-09-27T00:52:41;71719.38;;;11.97;100.00
3160;BME280;1591;51.486;7.146;2022-09-27T00:55:14;71731.34;;;11.95;100.00
3160;BME280;1591;51.486;7.146;2022-09-27T00:57:45;71702.81;;;11.94;100.00
3160;BME280;1591;51.486;7.146;2022-09-27T01:00:14;71700.50;;;11.92;100.00
3160;BME280;1591;51.486;7.146;2022-09-27T01:02:46;71697.06;;;11.89;100.00
3160;BME280;1591;51.486;7.146;2022-09-27T01:05:17;71697.63;;;11.90;100.00
3160;BME280;1591;51.486;7.146;2022-09-27T01:07:47;71691.53;;;11.80;100.00
3160;BME280;1591;51.486;7.146;2022-09-27T01:10:17;71694.09;;;11.77;100.00
3160;BME280;1591;51.486;7.146;2022-09-27T01:12:57;71701.34;;;11.88;100.00
3160;BME280;1591;51.486;7.146;2022-09-27T01:15:35;71702.66;;;11.92;100.00
3160;BME280;1591;51.486;7.146;2022-09-27T01:18:29;71710.44;;;11.94;100.00
3160;BME280;1591;51.486;7.146;2022-09-27T01:21:36;71718.38;;;11.98;100.00
3160;BME280;1591;51.486;7.146;2022-09-27T01:24:43;71701.25;;;11.95;100.00
3160;BME280;1591;51.486;7.146;2022-09-27T01:30:44;71704.19;;;11.81;100.00
3160;BME280;1591;51.486;7.146;2022-09-27T01:33:36;71691.38;;;11.77;100.00
3160;BME280;1591;51.486;7.146;2022-09-27T01:36:22;71699.03;;;11.77;100.00
3160;BME280;1591;51.486;7.146;2022-09-27T01:39:06;71625.75;;;11.77;100.00
3160;BME280;1591;51.486;7.146;2022-09-27T01:41:40;71700.31;;;11.80;100.00
3160;BME280;1591;51.486;7.146;2022-09-27T01:44:19;71693.84;;;11.82;100.00
3160;BME280;1591;51.486;7.146;2022-09-27T01:46:54;71686.66;;;11.80;100.00
3160;BME280;1591;51.486;7.146;2022-09-27T01:49:30;71684.91;;;11.79;100.00
3160;BME280;1591;51.486;7.146;2022-09-27T01:52:04;71697.53;;;11.71;100.00
3160;BME280;1591;51.486;7.146;2022-09-27T01:54:41;71679.97;;;11.70;100.00
3160;BME280;1591;51.486;7.146;2022-09-27T01:57:16;71687.06;;;11.78;100.00
3160;BME280;1591;51.486;7.146;2022-09-27T01:59:49;71699.44;;;11.75;100.00
3160;BME280;1591;51.486;7.146;2022-09-27T02:02:24;71700.75;;;11.78;100.00
3160;BME280;1591;51.486;7.146;2022-09-27T02:04:55;71642.47;;;11.82;100.00
3160;BME280;1591;51.486;7.146;2022-09-27T02:07:28;71691.09;;;11.82;100.00
3160;BME280;1591;51.486;7.146;2022-09-27T02:10:04;71631.53;;;11.82;100.00
3160;BME280;1591;51.486;7.146;2022-09-27T02:12:51;71697.00;;;11.80;100.00
3160;BME280;1591;51.486;7.146;2022-09-27T02:15:18;71694.69;;;11.78;100.00
3160;BME280;1591;51.486;7.146;2022-09-27T02:17:55;71639.41;;;11.77;100.00
3160;BME280;1591;51.486;7.146;2022-09-27T02:20:29;71689.38;;;11.80;100.00
3160;BME280;1591;51.486;7.146;2022-09-27T02:23:09;71691.97;;;11.78;100.00
3160;BME280;1591;51.486;7.146;2022-09-27T02:25:45;71697.59;;;11.80;100.00
3160;BME280;1591;51.486;7.146;2022-09-27T02:28:23;71695.56;;;11.83;100.00
3160;BME280;1591;51.486;7.146;2022-09-27T02:30:54;71675.25;;;11.73;100.00
3160;BME280;1591;51.486;7.146;2022-09-27T02:33:28;71672.22;;;11.68;100.00
3160;BME280;1591;51.486;7.146;2022-09-27T02:35:58;71628.47;;;11.68;100.00
3160;BME280;1591;51.486;7.146;2022-09-27T02:38:27;71623.38;;;11.66;100.00
3160;BME280;1591;51.486;7.146;2022-09-27T02:40:54;71676.25;;;11.71;100.00
3160;BME280;1591;51.486;7.146;2022-09-27T02:43:28;71662.19;;;11.57;100.00
3160;BME280;1591;51.486;7.146;2022-09-27T02:46:11;71657.16;;;11.55;100.00
3160;BME280;1591;51.486;7.146;2022-09-27T02:48:55;71685.66;;;11.56;100.00
3160;BME280;1591;51.486;7.146;2022-09-27T02:51:37;71666.66;;;11.58;100.00
3160;BME280;1591;51.486;7.146;2022-09-27T02:54:20;71664.66;;;11.61;100.00
3160;BME280;1591;51.486;7.146;2022-09-27T02:57:10;71672.13;;;11.58;100.00
3160;BME280;1591;51.486;7.146;2022-09-27T02:59:48;71663.94;;;11.58;100.00
3160;BME280;1591;51.486;7.146;2022-09-27T03:02:29;71677.09;;;11.67;100.00
3160;BME280;1591;51.486;7.146;2022-09-27T03:05:06;71702.19;;;11.75;100.00
3160;BME280;1591;51.486;7.146;2022-09-27T03:07:34;71691.53;;;11.80;100.00
3160;BME280;1591;51.486;7.146;2022-09-27T03:10:05;71697.91;;;11.85;100.00
3160;BME280;1591;51.486;7.146;2022-09-27T03:12:37;71704.84;;;11.91;100.00
3160;BME280;1591;51.486;7.146;2022-09-27T03:15:05;71721.38;;;11.94;100.00
3160;BME280;1591;51.486;7.146;2022-09-27T03:17:39;71716.22;;;11.99;100.00
3160;BME280;1591;51.486;7.146;2022-09-27T03:20:08;71696.63;;;11.91;100.00
3160;BME280;1591;51.486;7.146;2022-09-27T03:22:35;71676.09;;;11.69;100.00
3160;BME280;1591;51.486;7.146;2022-09-27T03:25:07;71613.72;;;11.60;100.00
3160;BME280;1591;51.486;7.146;2022-09-27T03:27:37;71647.03;;;11.41;100.00
3160;BME280;1591;51.486;7.146;2022-09-27T03:30:06;71647.56;;;11.32;100.00
3160;BME280;1591;51.486;7.146;2022-09-27T03:32:33;71622.94;;;11.23;100.00
3160;BME280;1591;51.486;7.146;2022-09-27T03:35:00;71618.72;;;11.16;100.00
3160;BME280;1591;51.486;7.146;2022-09-27T03:37:29;71612.84;;;11.18;100.00
3160;BME280;1591;51.486;7.146;2022-09-27T03:39:58;71640.31;;;11.21;100.00
3160;BME280;1591;51.486;7.146;2022-09-27T03:42:25;71614.00;;;11.19;100.00
3160;BME280;1591;51.486;7.146;2022-09-27T03:44:53;71608.50;;;11.10;100.00
3160;BME280;1591;51.486;7.146;2022-09-27T03:47:20;71615.69;;;11.11;100.00
3160;BME280;1591;51.486;7.146;2022-09-27T03:49:48;71625.63;;;11.13;100.00
3160;BME280;1591;51.486;7.146;2022-09-27T03:52:15;71628.78;;;11.11;100.00
3160;BME280;1591;51.486;7.146;2022-09-27T03:54:47;71613.97;;;11.10;100.00
3160;BME280;1591;51.486;7.146;2022-09-27T03:57:14;71633.56;;;11.17;100.00
3160;BME280;1591;51.486;7.146;2022-09-27T03:59:43;71621.34;;;11.24;100.00
3160;BME280;1591;51.486;7.146;2022-09-27T04:02:10;71621.78;;;11.22;100.00
3160;BME280;1591;51.486;7.146;2022-09-27T04:04:37;71629.13;;;11.26;100.00
3160;BME280;1591;51.486;7.146;2022-09-27T04:07:06;71629.44;;;11.31;100.00
3160;BME280;1591;51.486;7.146;2022-09-27T04:09:34;71648.78;;;11.43;100.00
3160;BME280;1591;51.486;7.146;2022-09-27T04:12:05;71611.13;;;11.53;100.00
3160;BME280;1591;51.486;7.146;2022-09-27T04:14:34;71663.38;;;11.58;100.00
3160;BME280;1591;51.486;7.146;2022-09-27T04:17:05;71665.84;;;11.62;100.00
3160;BME280;1591;51.486;7.146;2022-09-27T04:19:32;71697.63;;;11.64;100.00
3160;BME280;1591;51.486;7.146;2022-09-27T04:22:04;71681.81;;;11.64;100.00
3160;BME280;1591;51.486;7.146;2022-09-27T04:24:31;71688.28;;;11.63;100.00
3160;BME280;1591;51.486;7.146;2022-09-27T04:26:59;71674.75;;;11.65;100.00
3160;BME280;1591;51.486;7.146;2022-09-27T04:29:27;71680.03;;;11.53;100.00
3160;BME280;1591;51.486;7.146;2022-09-27T04:31:56;71666.25;;;11.60;100.00
3160;BME280;1591;51.486;7.146;2022-09-27T04:34:26;71668.41;;;11.60;100.00
3160;BME280;1591;51.486;7.146;2022-09-27T04:37:10;71675.34;;;11.66;100.00
3160;BME280;1591;51.486;7.146;2022-09-27T04:39:37;71662.63;;;11.55;100.00
3160;BME280;1591;51.486;7.146;2022-09-27T04:42:05;71663.91;;;11.49;100.00
3160;BME280;1591;51.486;7.146;2022-09-27T04:44:33;71665.78;;;11.53;100.00
3160;BME280;1591;51.486;7.146;2022-09-27T04:47:02;71657.41;;;11.50;100.00
3160;BME280;1591;51.486;7.146;2022-09-27T04:49:29;71671.22;;;11.43;100.00
3160;BME280;1591;51.486;7.146;2022-09-27T04:51:59;71652.09;;;11.43;100.00
3160;BME280;1591;51.486;7.146;2022-09-27T04:54:40;71640.25;;;11.38;100.00
3160;BME280;1591;51.486;7.146;2022-09-27T04:57:09;71625.09;;;11.22;100.00
3160;BME280;1591;51.486;7.146;2022-09-27T04:59:38;71617.31;;;11.20;100.00
3160;BME280;1591;51.486;7.146;2022-09-27T05:02:07;71634.00;;;11.25;100.00
3160;BME280;1591;51.486;7.146;2022-09-27T05:04:36;71636.31;;;11.27;100.00
3160;BME280;1591;51.486;7.146;2022-09-27T05:07:03;71634.75;;;11.28;100.00
3160;BME280;1591;51.486;7.146;2022-09-27T05:09:33;71630.00;;;11.31;100.00
3160;BME280;1591;51.486;7.146;2022-09-27T05:12:04;71643.97;;;11.27;100.00
3160;BME280;1591;51.486;7.146;2022-09-27T05:14:34;71643.09;;;11.31;100.00
3160;BME280;1591;51.486;7.146;2022-09-27T05:17:05;71642.84;;;11.35;100.00
3160;BME280;1591;51.486;7.146;2022-09-27T05:19:35;71645.56;;;11.35;100.00
3160;BME280;1591;51.486;7.146;2022-09-27T05:22:04;71659.38;;;11.38;100.00
3160;BME280;1591;51.486;7.146;2022-09-27T05:24:35;71636.31;;;11.27;100.00
3160;BME280;1591;51.486;7.146;2022-09-27T05:27:06;71649.66;;;11.48;100.00
3160;BME280;1591;51.486;7.146;2022-09-27T05:29:36;71656.09;;;11.37;100.00
3160;BME280;1591;51.486;7.146;2022-09-27T05:32:13;71647.00;;;11.32;100.00
3160;BME280;1591;51.486;7.146;2022-09-27T05:34:41;71639.47;;;11.25;100.00
3160;BME280;1591;51.486;7.146;2022-09-27T05:37:10;71631.44;;;11.28;100.00
3160;BME280;1591;51.486;7.146;2022-09-27T05:39:37;71631.84;;;11.26;100.00
3160;BME280;1591;51.486;7.146;2022-09-27T05:42:04;71644.06;;;11.19;100.00
3160;BME280;1591;51.486;7.146;2022-09-27T05:44:34;71651.75;;;11.38;100.00
3160;BME280;1591;51.486;7.146;2022-09-27T05:47:05;71656.53;;;11.45;100.00
3160;BME280;1591;51.486;7.146;2022-09-27T05:49:35;71666.00;;;11.39;100.00
3160;BME280;1591;51.486;7.146;2022-09-27T05:52:06;71631.13;;;11.23;100.00
3160;BME280;1591;51.486;7.146;2022-09-27T05:54:36;71634.06;;;11.35;100.00
3160;BME280;1591;51.486;7.146;2022-09-27T05:57:06;71636.97;;;11.37;100.00
3160;BME280;1591;51.486;7.146;2022-09-27T05:59:33;71669.09;;;11.53;100.00
3160;BME280;1591;51.486;7.146;2022-09-27T06:02:01;71673.47;;;11.62;100.00
3160;BME280;1591;51.486;7.146;2022-09-27T06:04:37;71595.56;;;11.49;100.00
3160;BME280;1591;51.486;7.146;2022-09-27T06:07:08;71650.97;;;11.52;100.00
3160;BME280;1591;51.486;7.146;2022-09-27T06:09:37;71661.59;;;11.47;100.00
3160;BME280;1591;51.486;7.146;2022-09-27T06:12:07;71648.56;;;11.31;100.00
3160;BME280;1591;51.486;7.146;2022-09-27T06:14:36;71662.34;;;11.50;100.00
3160;BME280;1591;51.486;7.146;2022-09-27T06:17:04;71665.09;;;11.59;100.00
3160;BME280;1591;51.486;7.146;2022-09-27T06:19:33;71701.28;;;11.69;100.00
3160;BME280;1591;51.486;7.146;2022-09-27T06:22:00;71693.84;;;11.82;100.00
3160;BME280;1591;51.486;7.146;2022-09-27T06:24:28;71676.03;;;11.59;100.00
3160;BME280;1591;51.486;7.146;2022-09-27T06:26:56;71628.97;;;11.23;100.00
3160;BME280;1591;51.486;7.146;2022-09-27T06:29:24;71613.81;;;11.07;100.00
3160;BME280;1591;51.486;7.146;2022-09-27T06:31:54;71655.25;;;11.41;100.00
3160;BME280;1591;51.486;7.146;2022-09-27T06:34:22;71626.88;;;11.07;100.00
3160;BME280;1591;51.486;7.146;2022-09-27T06:36:51;71639.69;;;11.37;100.00
3160;BME280;1591;51.486;7.146;2022-09-27T06:39:19;71627.13;;;11.29;100.00
3160;BME280;1591;51.486;7.146;2022-09-27T06:41:46;71578.81;;;11.25;100.00
3160;BME280;1591;51.486;7.146;2022-09-27T06:44:13;71642.38;;;11.28;100.00
3160;BME280;1591;51.486;7.146;2022-09-27T06:46:40;71652.19;;;11.36;100.00
3160;BME280;1591;51.486;7.146;2022-09-27T06:49:07;71648.66;;;11.50;100.00
3160;BME280;1591;51.486;7.146;2022-09-27T06:51:36;71690.38;;;11.79;100.00
3160;BME280;1591;51.486;7.146;2022-09-27T06:54:04;71689.50;;;11.73;100.00
3160;BME280;1591;51.486;7.146;2022-09-27T06:56:31;71674.19;;;11.65;100.00
3160;BME280;1591;51.486;7.146;2022-09-27T06:58:58;71674.94;;;11.68;100.00
3160;BME280;1591;51.486;7.146;2022-09-27T07:01:44;71705.34;;;11.73;100.00
3160;BME280;1591;51.486;7.146;2022-09-27T07:04:11;71668.69;;;11.55;100.00
3160;BME280;1591;51.486;7.146;2022-09-27T07:06:39;71641.56;;;11.41;100.00
3160;BME280;1591;51.486;7.146;2022-09-27T07:09:08;71661.47;;;11.54;100.00
3160;BME280;1591;51.486;7.146;2022-09-27T07:11:35;71704.34;;;11.84;100.00
3160;BME280;1591;51.486;7.146;2022-09-27T07:14:03;71707.00;;;11.91;100.00
3160;BME280;1591;51.486;7.146;2022-09-27T07:16:32;71700.91;;;11.81;100.00
3160;BME280;1591;51.486;7.146;2022-09-27T07:19:03;71723.81;;;11.89;100.00
3160;BME280;1591;51.486;7.146;2022-09-27T07:21:32;71718.22;;;11.96;100.00
3160;BME280;1591;51.486;7.146;2022-09-27T07:24:00;71721.00;;;12.06;100.00
3160;BME280;1591;51.486;7.146;2022-09-27T07:26:29;71753.91;;;12.25;100.00
3160;BME280;1591;51.486;7.146;2022-09-27T07:28:58;71705.59;;;12.04;100.00
3160;BME280;1591;51.486;7.146;2022-09-27T07:31:26;71727.16;;;11.99;100.00
3160;BME280;1591;51.486;7.146;2022-09-27T07:33:53;71694.97;;;11.73;100.00
3160;BME280;1591;51.486;7.146;2022-09-27T07:36:21;71710.00;;;11.86;100.00
3160;BME280;1591;51.486;7.146;2022-09-27T07:38:50;71687.06;;;11.78;100.00
3160;BME280;1591;51.486;7.146;2022-09-27T07:41:19;71699.78;;;11.89;100.00
3160;BME280;1591;51.486;7.146;2022-09-27T07:43:51;71748.97;;;12.16;100.00
3160;BME280;1591;51.486;7.146;2022-09-27T07:46:20;71638.44;;;11.79;100.00
3160;BME280;1591;51.486;7.146;2022-09-27T07:48:51;71675.41;;;12.21;100.00
3160;BME280;1591;51.486;7.146;2022-09-27T07:51:18;71770.78;;;12.32;100.00
3160;BME280;1591;51.486;7.146;2022-09-27T07:53:47;71760.75;;;12.38;100.00
3160;BME280;1591;51.486;7.146;2022-09-27T07:56:15;71757.44;;;12.37;100.00
3160;BME280;1591;51.486;7.146;2022-09-27T07:58:45;71772.16;;;12.55;100.00
3160;BME280;1591;51.486;7.146;2022-09-27T08:01:17;71783.69;;;12.55;100.00
3160;BME280;1591;51.486;7.146;2022-09-27T08:03:44;71796.44;;;12.66;100.00
3160;BME280;1591;51.486;7.146;2022-09-27T08:06:12;71773.84;;;12.37;100.00
3160;BME280;1591;51.486;7.146;2022-09-27T08:08:41;71764.47;;;12.36;100.00
3160;BME280;1591;51.486;7.146;2022-09-27T08:11:11;71758.88;;;12.43;100.00
3160;BME280;1591;51.486;7.146;2022-09-27T08:13:41;71751.63;;;12.32;100.00
3160;BME280;1591;51.486;7.146;2022-09-27T08:16:08;71764.66;;;12.48;100.00
3160;BME280;1591;51.486;7.146;2022-09-27T08:18:38;71792.94;;;12.54;100.00
3160;BME280;1591;51.486;7.146;2022-09-27T08:21:06;71765.06;;;12.46;100.00
3160;BME280;1591;51.486;7.146;2022-09-27T08:23:33;71771.19;;;12.56;100.00
3160;BME280;1591;51.486;7.146;2022-09-27T08:26:01;71778.22;;;12.55;100.00
3160;BME280;1591;51.486;7.146;2022-09-27T08:28:31;71797.47;;;12.74;100.00
3160;BME280;1591;51.486;7.146;2022-09-27T08:30:58;71834.34;;;13.04;100.00
3160;BME280;1591;51.486;7.146;2022-09-27T08:33:27;71755.56;;;12.88;100.00
3160;BME280;1591;51.486;7.146;2022-09-27T08:36:00;71745.41;;;12.74;100.00
3160;BME280;1591;51.486;7.146;2022-09-27T08:38:30;71850.97;;;13.16;100.00
3160;BME280;1591;51.486;7.146;2022-09-27T08:41:05;71810.06;;;12.93;100.00
3160;BME280;1591;51.486;7.146;2022-09-27T08:43:40;71832.47;;;13.10;100.00
3160;BME280;1591;51.486;7.146;2022-09-27T08:46:26;71823.78;;;13.02;100.00
3160;BME280;1591;51.486;7.146;2022-09-27T08:49:02;71822.75;;;12.94;100.00
3160;BME280;1591;51.486;7.146;2022-09-27T08:51:33;71788.22;;;12.66;100.00
3160;BME280;1591;51.486;7.146;2022-09-27T08:54:10;71821.56;;;12.84;100.00
3160;BME280;1591;51.486;7.146;2022-09-27T08:56:40;71838.28;;;13.15;100.00
3160;BME280;1591;51.486;7.146;2022-09-27T08:59:12;71858.94;;;13.30;100.00
3160;BME280;1591;51.486;7.146;2022-09-27T09:01:41;71853.16;;;13.25;100.00
3160;BME280;1591;51.486;7.146;2022-09-27T09:04:11;71848.09;;;13.23;100.00
3160;BME280;1591;51.486;7.146;2022-09-27T09:06:53;71877.56;;;13.30;100.00
3160;BME280;1591;51.486;7.146;2022-09-27T09:09:32;71876.56;;;13.41;100.00
3160;BME280;1591;51.486;7.146;2022-09-27T09:12:15;71845.78;;;13.21;100.00
3160;BME280;1591;51.486;7.146;2022-09-27T09:15:12;71861.53;;;13.28;100.00
3160;BME280;1591;51.486;7.146;2022-09-27T09:17:59;71860.50;;;13.20;100.00
3160;BME280;1591;51.486;7.146;2022-09-27T09:20:52;71832.91;;;13.08;100.00
3160;BME280;1591;51.486;7.146;2022-09-27T09:23:59;71849.44;;;13.01;100.00
3160;BME280;1591;51.486;7.146;2022-09-27T09:26:37;71834.72;;;12.93;100.00
3160;BME280;1591;51.486;7.146;2022-09-27T09:29:20;71867.25;;;13.14;100.00
3160;BME280;1591;51.486;7.146;2022-09-27T09:31:59;71769.97;;;13.01;100.00
3160;BME280;1591;51.486;7.146;2022-09-27T09:34:33;71785.28;;;12.54;100.00
3160;BME280;1591;51.486;7.146;2022-09-27T09:37:10;71791.81;;;12.62;100.00
3160;BME280;1591;51.486;7.146;2022-09-27T09:39:44;71806.00;;;12.80;100.00
3160;BME280;1591;51.486;7.146;2022-09-27T09:42:16;71820.47;;;13.02;100.00
3160;BME280;1591;51.486;7.146;2022-09-27T09:44:54;71867.75;;;13.31;100.00
3160;BME280;1591;51.486;7.146;2022-09-27T09:47:34;71853.28;;;13.18;100.00
3160;BME280;1591;51.486;7.146;2022-09-27T09:50:17;71892.84;;;13.38;100.00
3160;BME280;1591;51.486;7.146;2022-09-27T09:52:50;71868.16;;;13.29;100.00
3160;BME280;1591;51.486;7.146;2022-09-27T09:55:25;71884.41;;;13.52;100.00
3160;BME280;1591;51.486;7.146;2022-09-27T09:58:04;71816.28;;;12.96;100.00
3160;BME280;1591;51.486;7.146;2022-09-27T10:00:40;71863.81;;;13.20;100.00
3160;BME280;1591;51.486;7.146;2022-09-27T10:03:09;71816.78;;;12.77;100.00
3160;BME280;1591;51.486;7.146;2022-09-27T10:05:37;71856.16;;;13.21;100.00
3160;BME280;1591;51.486;7.146;2022-09-27T10:08:07;71810.59;;;13.29;100.00
3160;BME280;1591;51.486;7.146;2022-09-27T10:10:40;71838.44;;;13.17;100.00
3160;BME280;1591;51.486;7.146;2022-09-27T10:13:14;71842.44;;;13.11;100.00
3160;BME280;1591;51.486;7.146;2022-09-27T10:15:47;71849.50;;;13.10;100.00
3160;BME280;1591;51.486;7.146;2022-09-27T10:18:18;71854.56;;;13.12;100.00
3160;BME280;1591;51.486;7.146;2022-09-27T10:20:51;71884.94;;;13.43;100.00
3160;BME280;1591;51.486;7.146;2022-09-27T10:23:23;71881.78;;;13.45;100.00
3160;BME280;1591;51.486;7.146;2022-09-27T10:25:55;71899.84;;;13.54;100.00
3160;BME280;1591;51.486;7.146;2022-09-27T10:28:33;71894.66;;;13.59;100.00
3160;BME280;1591;51.486;7.146;2022-09-27T10:31:04;71920.25;;;13.84;100.00
3160;BME280;1591;51.486;7.146;2022-09-27T10:33:34;71908.13;;;13.73;100.00
3160;BME280;1591;51.486;7.146;2022-09-27T10:36:03;71874.25;;;13.39;100.00
3160;BME280;1591;51.486;7.146;2022-09-27T10:38:52;71881.22;;;13.54;100.00
3160;BME280;1591;51.486;7.146;2022-09-27T10:41:25;71894.34;;;13.54;100.00
3160;BME280;1591;51.486;7.146;2022-09-27T10:43:55;71900.59;;;13.67;100.00
3160;BME280;1591;51.486;7.146;2022-09-27T10:46:29;71876.59;;;13.50;100.00
3160;BME280;1591;51.486;7.146;2022-09-27T10:49:09;71884.63;;;13.38;100.00
3160;BME280;1591;51.486;7.146;2022-09-27T10:51:39;71897.94;;;13.50;100.00
3160;BME280;1591;51.486;7.146;2022-09-27T10:54:19;71903.91;;;13.67;100.00
3160;BME280;1591;51.486;7.146;2022-09-27T10:56:57;71946.31;;;14.06;100.00
3160;BME280;1591;51.486;7.146;2022-09-27T10:59:29;71997.84;;;14.51;100.00
3160;BME280;1591;51.486;7.146;2022-09-27T11:01:58;72028.69;;;14.80;100.00
3160;BME280;1591;51.486;7.146;2022-09-27T11:04:31;72055.91;;;15.04;100.00
3160;BME280;1591;51.486;7.146;2022-09-27T11:07:13;72033.03;;;14.79;100.00
3160;BME280;1591;51.486;7.146;2022-09-27T11:09:47;72044.31;;;14.94;100.00
3160;BME280;1591;51.486;7.146;2022-09-27T11:12:20;72057.63;;;14.96;100.00
3160;BME280;1591;51.486;7.146;2022-09-27T11:14:55;72055.34;;;15.03;100.00
3160;BME280;1591;51.486;7.146;2022-09-27T11:17:33;71973.81;;;14.35;100.00
3160;BME280;1591;51.486;7.146;2022-09-27T11:20:22;71907.41;;;13.80;100.00
3160;BME280;1591;51.486;7.146;2022-09-27T11:23:30;71939.47;;;13.93;100.00
3160;BME280;1591;51.486;7.146;2022-09-27T11:26:11;71957.88;;;14.07;100.00
3160;BME280;1591;51.486;7.146;2022-09-27T11:28:47;71987.59;;;14.45;100.00
3160;BME280;1591;51.486;7.146;2022-09-27T11:31:29;71997.97;;;14.44;100.00
3160;BME280;1591;51.486;7.146;2022-09-27T11:34:43;72054.91;;;15.05;100.00
3160;BME280;1591;51.486;7.146;2022-09-27T11:37:21;72077.91;;;15.23;100.00
3160;BME280;1591;51.486;7.146;2022-09-27T11:40:08;72111.22;;;15.38;100.00
3160;BME280;1591;51.486;7.146;2022-09-27T11:43:08;72092.69;;;15.41;100.00
3160;BME280;1591;51.486;7.146;2022-09-27T11:46:00;72092.09;;;15.21;100.00
3160;BME280;1591;51.486;7.146;2022-09-27T11:51:49;72059.06;;;15.02;100.00
3160;BME280;1591;51.486;7.146;2022-09-27T11:54:38;72048.50;;;15.00;100.00
3160;BME280;1591;51.486;7.146;2022-09-27T11:57:20;72032.59;;;14.81;100.00
3160;BME280;1591;51.486;7.146;2022-09-27T12:00:09;72023.44;;;14.66;100.00
3160;BME280;1591;51.486;7.146;2022-09-27T12:03:19;72025.06;;;14.75;100.00
3160;BME280;1591;51.486;7.146;2022-09-27T12:06:03;72033.59;;;14.80;100.00
3160;BME280;1591;51.486;7.146;2022-09-27T12:08:44;72044.31;;;14.94;100.00
3160;BME280;1591;51.486;7.146;2022-09-27T12:11:20;72046.19;;;14.79;100.00
3160;BME280;1591;51.486;7.146;2022-09-27T12:13:56;72054.59;;;15.00;100.00
3160;BME280;1591;51.486;7.146;2022-09-27T12:16:26;72039.84;;;14.83;100.00
3160;BME280;1591;51.486;7.146;2022-09-27T12:18:59;72044.19;;;15.01;100.00
3160;BME280;1591;51.486;7.146;2022-09-27T12:21:32;72095.88;;;15.10;100.00
3160;BME280;1591;51.486;7.146;2022-09-27T12:24:03;72049.38;;;14.96;100.00
3160;BME280;1591;51.486;7.146;2022-09-27T12:26:36;72010.13;;;14.55;100.00
3160;BME280;1591;51.486;7.146;2022-09-27T12:29:11;71991.91;;;14.44;100.00
3160;BME280;1591;51.486;7.146;2022-09-27T12:31:44;72007.69;;;14.50;100.00
3160;BME280;1591;51.486;7.146;2022-09-27T12:34:21;71996.09;;;14.50;100.00
3160;BME280;1591;51.486;7.146;2022-09-27T12:37:01;71990.19;;;14.52;100.00
3160;BME280;1591;51.486;7.146;2022-09-27T12:39:46;71996.38;;;14.36;100.00
3160;BME280;1591;51.486;7.146;2022-09-27T12:42:24;71990.75;;;14.43;100.00
3160;BME280;1591;51.486;7.146;2022-09-27T12:44:54;71994.78;;;14.37;100.00
3160;BME280;1591;51.486;7.146;2022-09-27T12:47:42;71966.41;;;14.21;100.00
3160;BME280;1591;51.486;7.146;2022-09-27T12:50:23;71939.78;;;13.98;100.00
3160;BME280;1591;51.486;7.146;2022-09-27T12:53:01;71882.09;;;13.50;100.00
3160;BME280;1591;51.486;7.146;2022-09-27T12:56:08;71870.63;;;13.33;100.00
3160;BME280;1591;51.486;7.146;2022-09-27T12:59:06;71864.69;;;13.26;100.00
3160;BME280;1591;51.486;7.146;2022-09-27T13:02:19;71867.13;;;13.21;100.00
3160;BME280;1591;51.486;7.146;2022-09-27T13:08:25;71862.13;;;13.38;100.00
3160;BME280;1591;51.486;7.146;2022-09-27T13:11:08;71879.63;;;13.55;100.00
3160;BME280;1591;51.486;7.146;2022-09-27T13:13:40;71911.44;;;13.83;100.00
3160;BME280;1591;51.486;7.146;2022-09-27T13:16:09;71940.22;;;13.96;100.00
3160;BME280;1591;51.486;7.146;2022-09-27T13:18:53;71929.97;;;13.99;100.00
3160;BME280;1591;51.486;7.146;2022-09-27T13:21:58;71946.88;;;14.07;100.00
3160;BME280;1591;51.486;7.146;2022-09-27T13:24:50;71962.66;;;14.13;100.00
3160;BME280;1591;51.486;7.146;2022-09-27T13:27:41;71958.88;;;14.15;100.00
3160;BME280;1591;51.486;7.146;2022-09-27T13:30:51;71986.69;;;14.39;100.00
3160;BME280;1591;51.486;7.146;2022-09-27T13:33:47;72000.44;;;14.49;100.00
3160;BME280;1591;51.486;7.146;2022-09-27T13:36:34;71976.88;;;14.40;100.00
3160;BME280;1591;51.486;7.146;2022-09-27T13:39:18;71986.69;;;14.39;100.00
3160;BME280;1591;51.486;7.146;2022-09-27T13:42:30;71952.97;;;14.07;100.00
3160;BME280;1591;51.486;7.146;2022-09-27T13:45:18;71941.81;;;13.95;100.00
3160;BME280;1591;51.486;7.146;2022-09-27T13:48:01;71929.81;;;13.97;100.00
3160;BME280;1591;51.486;7.146;2022-09-27T13:50:49;71929.53;;;13.92;100.00
3160;BME280;1591;51.486;7.146;2022-09-27T13:53:25;71923.28;;;13.89;100.00
3160;BME280;1591;51.486;7.146;2022-09-27T13:55:54;71913.34;;;13.87;100.00
3160;BME280;1591;51.486;7.146;2022-09-27T13:58:43;71948.59;;;13.99;100.00
3160;BME280;1591;51.486;7.146;2022-09-27T14:01:27;71945.13;;;13.96;100.00
3160;BME280;1591;51.486;7.146;2022-09-27T14:04:02;71964.25;;;14.22;100.00